createdAt,value
2017-11-08T00:00:55.310Z,5.8
2017-11-08T00:01:57.678Z,5.8
2017-11-08T00:03:00.207Z,5.8
2017-11-08T00:04:02.582Z,5.8
2017-11-08T00:05:04.946Z,5.8
2017-11-08T00:06:07.439Z,5.8
2017-11-08T00:07:09.822Z,5.9
2017-11-08T00:08:12.376Z,5.9
2017-11-08T00:09:15.469Z,5.9
2017-11-08T00:10:18.002Z,6
2017-11-08T00:11:20.384Z,5.9
2017-11-08T00:12:23.121Z,6
2017-11-08T00:13:25.651Z,6
2017-11-08T00:14:28.025Z,6
2017-11-08T00:15:30.581Z,6
2017-11-08T00:16:32.953Z,6
2017-11-08T00:17:35.339Z,6
2017-11-08T00:18:37.808Z,6
2017-11-08T00:19:40.171Z,6
2017-11-08T00:20:42.790Z,6
2017-11-08T00:21:45.518Z,6
2017-11-08T00:22:47.895Z,6
2017-11-08T00:23:50.381Z,6.1
2017-11-08T00:24:52.756Z,6.1
2017-11-08T00:25:55.319Z,6.1
2017-11-08T00:26:57.691Z,6.1
2017-11-08T00:28:00.086Z,6.1
2017-11-08T00:29:02.943Z,6
2017-11-08T00:30:05.307Z,6.1
2017-11-08T00:31:07.688Z,6.1
2017-11-08T00:32:10.411Z,6
2017-11-08T00:33:13.229Z,6
2017-11-08T00:34:15.607Z,6
2017-11-08T00:35:17.973Z,6
2017-11-08T00:36:20.605Z,6
2017-11-08T00:37:22.984Z,6
2017-11-08T00:38:25.359Z,6
2017-11-08T00:39:27.733Z,6
2017-11-08T00:40:30.168Z,6
2017-11-08T00:41:32.563Z,6
2017-11-08T00:42:34.947Z,6
2017-11-08T00:43:37.375Z,6
2017-11-08T00:44:39.797Z,6
2017-11-08T00:45:42.264Z,6
2017-11-08T00:46:44.759Z,6
2017-11-08T00:47:47.112Z,6
2017-11-08T00:48:49.603Z,6
2017-11-08T00:49:51.973Z,6
2017-11-08T00:50:54.345Z,6
2017-11-08T00:51:57.066Z,6
2017-11-08T00:52:59.444Z,6
2017-11-08T00:54:01.828Z,6
2017-11-08T00:55:04.197Z,6
2017-11-08T00:56:06.585Z,6
2017-11-08T00:57:08.988Z,6
2017-11-08T00:58:11.625Z,6.1
2017-11-08T00:59:14.571Z,6.1
2017-11-08T01:00:17.003Z,6.1
2017-11-08T01:01:19.436Z,6.1
2017-11-08T01:02:21.941Z,6.1
2017-11-08T01:03:24.996Z,6.1
2017-11-08T01:04:27.378Z,6.1
2017-11-08T01:05:29.746Z,6.1
2017-11-08T01:06:32.117Z,6.1
2017-11-08T01:07:34.504Z,6.1
2017-11-08T01:08:36.875Z,6.1
2017-11-08T01:09:39.231Z,6.1
2017-11-08T01:10:41.610Z,6.1
2017-11-08T01:11:43.983Z,6.1
2017-11-08T01:12:46.356Z,6.1
2017-11-08T01:13:48.727Z,6.1
2017-11-08T01:14:51.096Z,6.1
2017-11-08T01:15:53.463Z,6.1
2017-11-08T01:16:55.848Z,6.2
2017-11-08T01:17:58.217Z,6.2
2017-11-08T01:19:00.595Z,6.2
2017-11-08T01:20:02.969Z,6.2
2017-11-08T01:21:05.356Z,6.2
2017-11-08T01:22:07.723Z,6.2
2017-11-08T01:23:10.096Z,6.2
2017-11-08T01:24:12.474Z,6.2
2017-11-08T01:25:14.840Z,6.2
2017-11-08T01:26:17.567Z,6.2
2017-11-08T01:27:19.940Z,6.2
2017-11-08T01:28:22.298Z,6.2
2017-11-08T01:29:24.681Z,6.2
2017-11-08T01:30:27.407Z,6.2
2017-11-08T01:31:29.778Z,6.2
2017-11-08T01:32:32.154Z,6.2
2017-11-08T01:33:34.520Z,6.2
2017-11-08T01:34:36.887Z,6.3
2017-11-08T01:35:39.270Z,6.3
2017-11-08T01:36:41.637Z,6.3
2017-11-08T01:37:44.017Z,6.3
2017-11-08T01:38:46.393Z,6.3
2017-11-08T01:39:48.765Z,6.2
2017-11-08T01:40:51.143Z,6.3
2017-11-08T01:41:53.860Z,6.3
2017-11-08T01:42:56.225Z,6.3
2017-11-08T01:43:58.604Z,6.3
2017-11-08T01:45:00.985Z,6.3
2017-11-08T01:46:03.355Z,6.3
2017-11-08T01:47:05.732Z,6.3
2017-11-08T01:48:08.108Z,6.3
2017-11-08T01:49:10.484Z,6.3
2017-11-08T01:50:13.567Z,6.3
2017-11-08T01:51:15.937Z,6.3
2017-11-08T01:52:18.293Z,6.3
2017-11-08T01:53:20.681Z,6.3
2017-11-08T01:54:23.049Z,6.3
2017-11-08T01:55:25.426Z,6.3
2017-11-08T01:56:27.796Z,6.3
2017-11-08T01:57:30.162Z,6.3
2017-11-08T01:58:32.536Z,6.3
2017-11-08T01:59:34.920Z,6.3
2017-11-08T02:00:37.644Z,6.3
2017-11-08T02:01:40.016Z,6.3
2017-11-08T02:02:42.383Z,6.3
2017-11-08T02:03:44.757Z,6.3
2017-11-08T02:04:47.132Z,6.3
2017-11-08T02:05:49.509Z,6.3
2017-11-08T02:06:51.874Z,6.3
2017-11-08T02:07:54.258Z,6.4
2017-11-08T02:08:56.633Z,6.3
2017-11-08T02:09:59.003Z,6.3
2017-11-08T02:11:01.369Z,6.4
2017-11-08T02:12:03.742Z,6.4
2017-11-08T02:13:06.116Z,6.4
2017-11-08T02:14:08.856Z,6.4
2017-11-08T02:15:11.589Z,6.4
2017-11-08T02:16:13.957Z,6.4
2017-11-08T02:17:16.333Z,6.4
2017-11-08T02:18:18.707Z,6.4
2017-11-08T02:19:21.081Z,6.4
2017-11-08T02:20:23.800Z,6.4
2017-11-08T02:21:26.166Z,6.4
2017-11-08T02:22:28.544Z,6.4
2017-11-08T02:23:30.918Z,6.4
2017-11-08T02:24:33.297Z,6.4
2017-11-08T02:25:35.674Z,6.4
2017-11-08T02:26:38.045Z,6.4
2017-11-08T02:27:40.413Z,6.4
2017-11-08T02:28:42.785Z,6.4
2017-11-08T02:29:45.154Z,6.4
2017-11-08T02:30:47.533Z,6.4
2017-11-08T02:31:49.897Z,6.4
2017-11-08T02:32:52.635Z,6.4
2017-11-08T02:33:55.358Z,6.4
2017-11-08T02:34:57.742Z,6.4
2017-11-08T02:36:00.102Z,6.4
2017-11-08T02:37:02.479Z,6.4
2017-11-08T02:38:04.845Z,6.4
2017-11-08T02:39:07.221Z,6.4
2017-11-08T02:40:09.595Z,6.4
2017-11-08T02:41:11.982Z,6.4
2017-11-08T02:42:14.349Z,6.4
2017-11-08T02:43:16.729Z,6.4
2017-11-08T02:44:19.454Z,6.4
2017-11-08T02:45:21.822Z,6.4
2017-11-08T02:46:24.196Z,6.4
2017-11-08T02:47:26.573Z,6.5
2017-11-08T02:48:28.934Z,6.5
2017-11-08T02:49:31.322Z,6.4
2017-11-08T02:50:33.696Z,6.4
2017-11-08T02:51:36.398Z,6.5
2017-11-08T02:52:39.130Z,6.5
2017-11-08T02:53:41.859Z,6.5
2017-11-08T02:54:44.238Z,6.5
2017-11-08T02:55:46.965Z,6.5
2017-11-08T02:56:49.692Z,6.5
2017-11-08T02:57:52.054Z,6.5
2017-11-08T02:58:54.439Z,6.5
2017-11-08T02:59:57.169Z,6.5
2017-11-08T03:01:00.235Z,6.5
2017-11-08T03:02:02.986Z,6.5
2017-11-08T03:03:05.375Z,6.5
2017-11-08T03:04:07.748Z,6.5
2017-11-08T03:05:10.128Z,6.5
2017-11-08T03:06:12.492Z,6.5
2017-11-08T03:07:14.865Z,6.5
2017-11-08T03:08:17.251Z,6.5
2017-11-08T03:09:19.629Z,6.5
2017-11-08T03:10:21.996Z,6.5
2017-11-08T03:11:24.376Z,6.5
2017-11-08T03:12:26.746Z,6.5
2017-11-08T03:13:29.134Z,6.5
2017-11-08T03:14:31.501Z,6.6
2017-11-08T03:15:33.864Z,6.6
2017-11-08T03:16:36.234Z,6.5
2017-11-08T03:17:38.615Z,6.5
2017-11-08T03:18:40.987Z,6.5
2017-11-08T03:19:43.354Z,6.5
2017-11-08T03:20:45.742Z,6.5
2017-11-08T03:21:48.117Z,6.5
2017-11-08T03:22:50.474Z,6.5
2017-11-08T03:23:52.852Z,6.5
2017-11-08T03:24:55.228Z,6.5
2017-11-08T03:25:57.609Z,6.6
2017-11-08T03:26:59.993Z,6.5
2017-11-08T03:28:02.362Z,6.5
2017-11-08T03:29:04.730Z,6.5
2017-11-08T03:30:07.114Z,6.5
2017-11-08T03:31:09.481Z,6.5
2017-11-08T03:32:11.859Z,6.5
2017-11-08T03:33:14.227Z,6.6
2017-11-08T03:34:16.607Z,6.6
2017-11-08T03:35:18.985Z,6.6
2017-11-08T03:36:21.383Z,6.6
2017-11-08T03:37:24.086Z,6.6
2017-11-08T03:38:27.160Z,6.6
2017-11-08T03:39:29.531Z,6.6
2017-11-08T03:40:31.910Z,6.6
2017-11-08T03:41:34.273Z,6.6
2017-11-08T03:42:36.650Z,6.6
2017-11-08T03:43:39.017Z,6.6
2017-11-08T03:44:41.389Z,6.6
2017-11-08T03:45:43.769Z,6.6
2017-11-08T03:46:46.142Z,6.6
2017-11-08T03:47:48.516Z,6.6
2017-11-08T03:48:50.903Z,6.6
2017-11-08T03:49:53.271Z,6.6
2017-11-08T03:50:55.988Z,6.6
2017-11-08T03:51:58.357Z,6.6
2017-11-08T03:53:00.739Z,6.6
2017-11-08T03:54:03.485Z,6.6
2017-11-08T03:55:05.856Z,6.6
2017-11-08T03:56:08.236Z,6.7
2017-11-08T03:57:10.607Z,6.7
2017-11-08T03:58:13.337Z,6.7
2017-11-08T03:59:15.716Z,6.7
2017-11-08T04:00:18.434Z,6.7
2017-11-08T04:01:20.809Z,6.7
2017-11-08T04:02:23.181Z,6.7
2017-11-08T04:03:25.556Z,6.7
2017-11-08T04:04:27.930Z,6.7
2017-11-08T04:05:30.294Z,6.7
2017-11-08T04:06:32.666Z,6.7
2017-11-08T04:07:35.049Z,6.7
2017-11-08T04:08:37.410Z,6.7
2017-11-08T04:09:39.778Z,6.7
2017-11-08T04:10:42.152Z,6.7
2017-11-08T04:11:44.872Z,6.7
2017-11-08T04:12:47.602Z,6.7
2017-11-08T04:13:49.979Z,6.7
2017-11-08T04:14:52.332Z,6.7
2017-11-08T04:15:54.715Z,6.7
2017-11-08T04:16:57.475Z,6.7
2017-11-08T04:17:59.831Z,6.7
2017-11-08T04:19:02.203Z,6.7
2017-11-08T04:20:04.579Z,6.7
2017-11-08T04:21:07.305Z,6.7
2017-11-08T04:22:09.744Z,6.7
2017-11-08T04:23:12.118Z,6.7
2017-11-08T04:24:14.498Z,6.7
2017-11-08T04:25:16.879Z,6.7
2017-11-08T04:26:19.252Z,6.7
2017-11-08T04:27:21.625Z,6.7
2017-11-08T04:28:24.382Z,6.7
2017-11-08T04:29:26.759Z,6.8
2017-11-08T04:30:29.133Z,6.7
2017-11-08T04:31:31.502Z,6.8
2017-11-08T04:32:33.871Z,6.8
2017-11-08T04:33:36.249Z,6.8
2017-11-08T04:34:38.629Z,6.8
2017-11-08T04:35:41.351Z,6.8
2017-11-08T04:36:44.076Z,6.8
2017-11-08T04:37:46.447Z,6.8
2017-11-08T04:38:48.833Z,6.8
2017-11-08T04:39:51.209Z,6.8
2017-11-08T04:40:53.576Z,6.8
2017-11-08T04:41:55.953Z,6.8
2017-11-08T04:42:58.327Z,6.8
2017-11-08T04:44:00.697Z,6.8
2017-11-08T04:45:03.087Z,6.8
2017-11-08T04:46:05.451Z,6.8
2017-11-08T04:47:07.834Z,6.8
2017-11-08T04:48:10.226Z,6.8
2017-11-08T04:49:12.593Z,6.9
2017-11-08T04:50:14.971Z,6.9
2017-11-08T04:51:18.056Z,6.9
2017-11-08T04:52:20.436Z,6.9
2017-11-08T04:53:22.794Z,6.9
2017-11-08T04:54:25.519Z,6.9
2017-11-08T04:55:27.908Z,6.9
2017-11-08T04:56:30.281Z,6.9
2017-11-08T04:57:33.018Z,6.9
2017-11-08T04:58:35.742Z,6.9
2017-11-08T04:59:38.115Z,6.9
2017-11-08T05:00:40.848Z,6.9
2017-11-08T05:01:43.224Z,6.9
2017-11-08T05:02:45.578Z,6.9
2017-11-08T05:03:47.957Z,6.9
2017-11-08T05:04:50.324Z,6.9
2017-11-08T05:05:53.043Z,6.9
2017-11-08T05:06:55.415Z,6.9
2017-11-08T05:07:57.790Z,6.9
2017-11-08T05:09:00.169Z,6.9
2017-11-08T05:10:02.544Z,6.9
2017-11-08T05:11:04.912Z,6.9
2017-11-08T05:12:07.306Z,6.9
2017-11-08T05:13:10.062Z,6.9
2017-11-08T05:14:12.448Z,6.9
2017-11-08T05:15:14.822Z,7
2017-11-08T05:16:17.193Z,6.9
2017-11-08T05:17:19.575Z,6.9
2017-11-08T05:18:21.951Z,6.9
2017-11-08T05:19:24.318Z,6.9
2017-11-08T05:20:27.057Z,7
2017-11-08T05:21:29.436Z,7
2017-11-08T05:22:31.815Z,6.9
2017-11-08T05:23:34.177Z,6.9
2017-11-08T05:24:36.553Z,6.9
2017-11-08T05:25:38.923Z,7
2017-11-08T05:26:41.313Z,7
2017-11-08T05:27:43.683Z,7
2017-11-08T05:28:46.046Z,6.9
2017-11-08T05:29:48.424Z,6.9
2017-11-08T05:30:50.801Z,7
2017-11-08T05:31:53.176Z,7
2017-11-08T05:32:55.909Z,7
2017-11-08T05:33:58.313Z,7
2017-11-08T05:35:00.671Z,7
2017-11-08T05:36:03.055Z,7.1
2017-11-08T05:37:05.429Z,7.1
2017-11-08T05:38:07.788Z,7
2017-11-08T05:39:10.172Z,7
2017-11-08T05:40:12.549Z,7
2017-11-08T05:41:14.920Z,7
2017-11-08T05:42:17.294Z,7
2017-11-08T05:43:19.663Z,7
2017-11-08T05:44:22.382Z,7
2017-11-08T05:45:24.767Z,7
2017-11-08T05:46:27.134Z,7
2017-11-08T05:47:29.502Z,7
2017-11-08T05:48:31.877Z,7
2017-11-08T05:49:34.249Z,7.1
2017-11-08T05:50:36.618Z,7
2017-11-08T05:51:39.004Z,7
2017-11-08T05:52:41.373Z,7
2017-11-08T05:53:43.754Z,7
2017-11-08T05:54:46.120Z,7
2017-11-08T05:55:48.495Z,7
2017-11-08T05:56:50.868Z,7
2017-11-08T05:57:53.243Z,7
2017-11-08T05:58:55.613Z,7
2017-11-08T05:59:57.984Z,7
2017-11-08T06:01:00.358Z,7
2017-11-08T06:02:02.745Z,7
2017-11-08T06:03:05.108Z,7
2017-11-08T06:04:07.487Z,7
2017-11-08T06:05:10.213Z,7
2017-11-08T06:06:12.941Z,7
2017-11-08T06:07:15.368Z,7
2017-11-08T06:08:17.753Z,7
2017-11-08T06:09:20.119Z,7.1
2017-11-08T06:10:22.503Z,7.1
2017-11-08T06:11:25.223Z,7.1
2017-11-08T06:12:27.597Z,7.1
2017-11-08T06:13:29.972Z,7.1
2017-11-08T06:14:32.346Z,7.1
2017-11-08T06:15:34.766Z,7.1
2017-11-08T06:16:37.128Z,7.1
2017-11-08T06:17:39.502Z,7.1
2017-11-08T06:18:41.871Z,7.2
2017-11-08T06:19:44.250Z,7.2
2017-11-08T06:20:46.632Z,7.2
2017-11-08T06:21:49.007Z,7.1
2017-11-08T06:22:51.383Z,7.1
2017-11-08T06:23:53.766Z,7.1
2017-11-08T06:24:56.475Z,7.1
2017-11-08T06:25:58.877Z,7.1
2017-11-08T06:27:01.599Z,7.1
2017-11-08T06:28:03.974Z,7.1
2017-11-08T06:29:06.352Z,7.1
2017-11-08T06:30:08.746Z,7.1
2017-11-08T06:31:11.101Z,7.1
2017-11-08T06:32:13.479Z,7.1
2017-11-08T06:33:15.853Z,7.1
2017-11-08T06:34:18.233Z,7.1
2017-11-08T06:35:20.612Z,7.1
2017-11-08T06:36:22.994Z,7.1
2017-11-08T06:37:26.066Z,7.1
2017-11-08T06:38:28.439Z,7.1
2017-11-08T06:39:30.816Z,7.1
2017-11-08T06:40:33.189Z,7.1
2017-11-08T06:41:35.558Z,7.2
2017-11-08T06:42:37.943Z,7.2
2017-11-08T06:43:40.311Z,7.2
2017-11-08T06:44:43.049Z,7.1
2017-11-08T06:45:45.423Z,7.1
2017-11-08T06:46:47.798Z,7.2
2017-11-08T06:47:50.182Z,7.2
2017-11-08T06:48:52.562Z,7.2
2017-11-08T06:49:54.924Z,7.2
2017-11-08T06:50:57.301Z,7.2
2017-11-08T06:51:59.679Z,7.2
2017-11-08T06:53:02.061Z,7.2
2017-11-08T06:54:04.424Z,7.1
2017-11-08T06:55:06.813Z,7.1
2017-11-08T06:56:09.180Z,7.2
2017-11-08T06:57:11.566Z,7.2
2017-11-08T06:58:13.945Z,7.2
2017-11-08T06:59:16.648Z,7.2
2017-11-08T07:00:19.028Z,7.2
2017-11-08T07:01:21.749Z,7.2
2017-11-08T07:02:24.128Z,7.2
2017-11-08T07:03:26.506Z,7.2
2017-11-08T07:04:29.267Z,7.2
2017-11-08T07:05:31.980Z,7.2
2017-11-08T07:06:34.355Z,7.2
2017-11-08T07:07:37.076Z,7.3
2017-11-08T07:08:39.435Z,7.3
2017-11-08T07:09:41.819Z,7.3
2017-11-08T07:10:44.536Z,7.3
2017-11-08T07:11:46.912Z,7.3
2017-11-08T07:12:49.293Z,7.2
2017-11-08T07:13:52.021Z,7.3
2017-11-08T07:14:54.395Z,7.3
2017-11-08T07:15:56.774Z,7.3
2017-11-08T07:16:59.138Z,7.3
2017-11-08T07:18:01.548Z,7.3
2017-11-08T07:19:03.921Z,7.3
2017-11-08T07:20:06.289Z,7.3
2017-11-08T07:21:09.024Z,7.3
2017-11-08T07:22:11.400Z,7.4
2017-11-08T07:23:13.774Z,7.4
2017-11-08T07:24:16.514Z,7.4
2017-11-08T07:25:18.878Z,7.4
2017-11-08T07:26:21.252Z,7.4
2017-11-08T07:27:23.651Z,7.4
2017-11-08T07:28:26.383Z,7.4
2017-11-08T07:29:28.753Z,7.4
2017-11-08T07:30:31.128Z,7.4
2017-11-08T07:31:33.504Z,7.4
2017-11-08T07:32:35.884Z,7.5
2017-11-08T07:33:38.259Z,7.4
2017-11-08T07:34:40.626Z,7.4
2017-11-08T07:35:42.995Z,7.5
2017-11-08T07:36:45.376Z,7.4
2017-11-08T07:37:47.744Z,7.5
2017-11-08T07:38:50.124Z,7.4
2017-11-08T07:39:52.483Z,7.4
2017-11-08T07:40:54.860Z,7.4
2017-11-08T07:41:57.243Z,7.4
2017-11-08T07:42:59.648Z,7.4
2017-11-08T07:44:02.390Z,7.4
2017-11-08T07:45:04.763Z,7.4
2017-11-08T07:46:07.139Z,7.4
2017-11-08T07:47:09.528Z,7.4
2017-11-08T07:48:11.894Z,7.5
2017-11-08T07:49:14.281Z,7.5
2017-11-08T07:50:16.653Z,7.6
2017-11-08T07:51:19.027Z,7.6
2017-11-08T07:52:21.445Z,7.6
2017-11-08T07:53:23.889Z,7.6
2017-11-08T07:54:26.346Z,7.6
2017-11-08T07:55:28.786Z,7.6
2017-11-08T07:56:31.248Z,7.7
2017-11-08T07:57:33.685Z,7.8
2017-11-08T07:58:36.169Z,7.9
2017-11-08T07:59:38.650Z,7.9
2017-11-08T08:00:41.094Z,7.8
2017-11-08T08:01:43.567Z,7.9
2017-11-08T08:02:46.001Z,8
2017-11-08T08:03:48.446Z,8.1
2017-11-08T08:04:51.284Z,8.2
2017-11-08T08:05:53.723Z,8.2
2017-11-08T08:06:56.177Z,8.2
2017-11-08T08:07:58.977Z,8.2
2017-11-08T08:09:01.409Z,8.2
2017-11-08T08:10:03.847Z,8.3
2017-11-08T08:11:06.373Z,8.3
2017-11-08T08:12:08.848Z,8.2
2017-11-08T08:13:11.287Z,8.1
2017-11-08T08:14:14.076Z,8.1
2017-11-08T08:15:17.293Z,8.1
2017-11-08T08:16:19.739Z,8.1
2017-11-08T08:17:22.181Z,8.2
2017-11-08T08:18:24.619Z,8.2
2017-11-08T08:19:27.161Z,8.2
2017-11-08T08:20:29.676Z,8.2
2017-11-08T08:21:32.121Z,8.2
2017-11-08T08:22:34.551Z,8.2
2017-11-08T08:23:36.998Z,8.2
2017-11-08T08:24:39.547Z,8.2
2017-11-08T08:25:41.979Z,8.2
2017-11-08T08:26:44.539Z,8.2
2017-11-08T08:27:47.722Z,8.2
2017-11-08T08:28:50.356Z,8.3
2017-11-08T08:29:52.817Z,8.3
2017-11-08T08:30:55.244Z,8.3
2017-11-08T08:31:58.034Z,8.3
2017-11-08T08:33:00.476Z,8.3
2017-11-08T08:34:02.910Z,8.4
2017-11-08T08:35:05.349Z,8.4
2017-11-08T08:36:07.781Z,8.4
2017-11-08T08:37:10.221Z,8.4
2017-11-08T08:38:12.652Z,8.5
2017-11-08T08:39:15.097Z,8.5
2017-11-08T08:40:17.901Z,8.6
2017-11-08T08:41:20.356Z,8.6
2017-11-08T08:42:23.131Z,8.6
2017-11-08T08:43:25.564Z,8.6
2017-11-08T08:44:27.997Z,8.6
2017-11-08T08:45:30.530Z,8.6
2017-11-08T08:46:33.008Z,8.6
2017-11-08T08:47:35.446Z,8.6
2017-11-08T08:48:37.873Z,8.6
2017-11-08T08:49:40.304Z,8.6
2017-11-08T08:50:42.754Z,8.6
2017-11-08T08:51:45.526Z,8.6
2017-11-08T08:52:47.959Z,8.5
2017-11-08T08:53:50.401Z,8.5
2017-11-08T08:54:52.834Z,8.5
2017-11-08T08:55:55.266Z,8.5
2017-11-08T08:56:57.707Z,8.6
2017-11-08T08:58:00.143Z,8.6
2017-11-08T08:59:02.579Z,8.7
2017-11-08T09:00:05.023Z,8.7
2017-11-08T09:01:07.819Z,8.7
2017-11-08T09:02:10.250Z,8.6
2017-11-08T09:03:12.684Z,8.6
2017-11-08T09:04:15.126Z,8.6
2017-11-08T09:05:17.546Z,8.6
2017-11-08T09:06:19.986Z,8.6
2017-11-08T09:07:22.423Z,8.7
2017-11-08T09:08:24.863Z,8.7
2017-11-08T09:09:27.329Z,8.6
2017-11-08T09:10:29.762Z,8.6
2017-11-08T09:11:32.195Z,8.6
2017-11-08T09:12:34.635Z,8.6
2017-11-08T09:13:37.082Z,8.6
2017-11-08T09:14:39.498Z,8.7
2017-11-08T09:15:41.937Z,8.7
2017-11-08T09:16:44.364Z,8.8
2017-11-08T09:17:46.802Z,8.8
2017-11-08T09:18:49.225Z,8.8
2017-11-08T09:19:51.641Z,8.8
2017-11-08T09:20:54.089Z,8.8
2017-11-08T09:21:56.526Z,8.7
2017-11-08T09:22:58.958Z,8.6
2017-11-08T09:24:01.394Z,8.7
2017-11-08T09:25:03.829Z,8.7
2017-11-08T09:26:06.266Z,8.8
2017-11-08T09:27:08.711Z,8.8
2017-11-08T09:28:11.556Z,8.9
2017-11-08T09:29:14.001Z,8.8
2017-11-08T09:30:16.432Z,8.8
2017-11-08T09:31:18.865Z,8.8
2017-11-08T09:32:21.308Z,9
2017-11-08T09:33:23.749Z,9.1
2017-11-08T09:34:26.194Z,9.3
2017-11-08T09:35:28.627Z,9.3
2017-11-08T09:36:31.063Z,9.4
2017-11-08T09:37:33.490Z,9.7
2017-11-08T09:38:35.940Z,9.7
2017-11-08T09:39:38.368Z,9.8
2017-11-08T09:40:40.793Z,9.8
2017-11-08T09:41:43.228Z,9.8
2017-11-08T09:42:45.670Z,9.8
2017-11-08T09:43:48.105Z,9.8
2017-11-08T09:44:50.895Z,9.7
2017-11-08T09:45:53.347Z,9.8
2017-11-08T09:46:55.779Z,9.8
2017-11-08T09:47:58.230Z,9.7
2017-11-08T09:49:00.668Z,9.8
2017-11-08T09:50:03.136Z,9.8
2017-11-08T09:51:05.541Z,9.7
2017-11-08T09:52:07.985Z,9.7
2017-11-08T09:53:10.413Z,9.7
2017-11-08T09:54:13.231Z,9.6
2017-11-08T09:55:15.669Z,9.5
2017-11-08T09:56:18.102Z,9.5
2017-11-08T09:57:21.256Z,9.4
2017-11-08T09:58:23.705Z,9.3
2017-11-08T09:59:26.131Z,9.4
2017-11-08T10:00:28.568Z,9.5
2017-11-08T10:01:31.001Z,9.5
2017-11-08T10:02:33.432Z,9.5
2017-11-08T10:03:35.878Z,9.5
2017-11-08T10:04:38.687Z,9.6
2017-11-08T10:05:41.122Z,9.6
2017-11-08T10:06:43.653Z,9.5
2017-11-08T10:07:45.999Z,9.5
2017-11-08T10:08:48.430Z,9.5
2017-11-08T10:09:50.961Z,9.4
2017-11-08T10:10:53.691Z,9.3
2017-11-08T10:11:56.120Z,9.3
2017-11-08T10:12:59.002Z,9.4
2017-11-08T10:14:01.511Z,9.4
2017-11-08T10:15:04.274Z,9.4
2017-11-08T10:16:06.960Z,9.4
2017-11-08T10:17:10.134Z,9.5
2017-11-08T10:18:12.581Z,9.6
2017-11-08T10:19:14.999Z,9.5
2017-11-08T10:20:17.443Z,9.5
2017-11-08T10:21:20.007Z,9.5
2017-11-08T10:22:22.314Z,9.5
2017-11-08T10:23:24.763Z,9.6
2017-11-08T10:24:27.210Z,9.7
2017-11-08T10:25:29.642Z,9.8
2017-11-08T10:26:32.091Z,9.7
2017-11-08T10:27:34.526Z,9.5
2017-11-08T10:28:36.959Z,9.6
2017-11-08T10:29:39.761Z,9.6
2017-11-08T10:30:42.541Z,9.7
2017-11-08T10:31:44.983Z,9.6
2017-11-08T10:32:47.420Z,9.5
2017-11-08T10:33:49.858Z,9.4
2017-11-08T10:34:52.296Z,9.4
2017-11-08T10:35:54.740Z,9.4
2017-11-08T10:36:57.161Z,9.5
2017-11-08T10:37:59.973Z,9.5
2017-11-08T10:39:02.407Z,9.5
2017-11-08T10:40:04.844Z,9.5
2017-11-08T10:41:07.634Z,9.5
2017-11-08T10:42:13.072Z,9.4
2017-11-08T10:43:16.705Z,9.4
2017-11-08T10:44:19.149Z,9.4
2017-11-08T10:45:21.617Z,9.3
2017-11-08T10:46:24.416Z,9.2
2017-11-08T10:47:27.227Z,9.1
2017-11-08T10:48:29.643Z,9.1
2017-11-08T10:49:32.440Z,9.2
2017-11-08T10:50:34.860Z,9.2
2017-11-08T10:51:37.295Z,9.2
2017-11-08T10:52:39.734Z,9.2
2017-11-08T10:53:42.164Z,9.3
2017-11-08T10:54:44.603Z,9.3
2017-11-08T10:55:47.045Z,9.3
2017-11-08T10:56:49.465Z,9.3
2017-11-08T10:57:51.904Z,9.3
2017-11-08T10:58:54.336Z,9.3
2017-11-08T10:59:56.767Z,9.3
2017-11-08T11:00:59.209Z,9.2
2017-11-08T11:02:01.634Z,9.2
2017-11-08T11:03:04.064Z,9.2
2017-11-08T11:04:06.508Z,9.2
2017-11-08T11:05:08.936Z,9.2
2017-11-08T11:06:11.364Z,9.2
2017-11-08T11:07:14.150Z,9.2
2017-11-08T11:08:16.579Z,9.2
2017-11-08T11:09:19.016Z,9.2
2017-11-08T11:10:21.445Z,9.2
2017-11-08T11:11:24.221Z,9.1
2017-11-08T11:12:26.660Z,9.1
2017-11-08T11:13:29.454Z,9.1
2017-11-08T11:14:31.888Z,9.1
2017-11-08T11:15:34.324Z,9.2
2017-11-08T11:16:37.117Z,9.2
2017-11-08T11:17:39.553Z,9.1
2017-11-08T11:18:41.976Z,9
2017-11-08T11:19:44.410Z,8.9
2017-11-08T11:20:46.847Z,9
2017-11-08T11:21:49.280Z,9
2017-11-08T11:22:51.709Z,9
2017-11-08T11:23:54.139Z,9
2017-11-08T11:24:56.573Z,9
2017-11-08T11:25:59.010Z,9
2017-11-08T11:27:01.793Z,9.1
2017-11-08T11:28:04.215Z,9.1
2017-11-08T11:29:06.673Z,9.1
2017-11-08T11:30:09.461Z,9
2017-11-08T11:31:11.903Z,9
2017-11-08T11:32:14.337Z,9
2017-11-08T11:33:16.758Z,9
2017-11-08T11:34:19.190Z,9
2017-11-08T11:35:21.628Z,8.9
2017-11-08T11:36:24.053Z,8.9
2017-11-08T11:37:26.486Z,8.9
2017-11-08T11:38:28.922Z,8.9
2017-11-08T11:39:31.349Z,8.9
2017-11-08T11:40:33.791Z,8.9
2017-11-08T11:41:36.223Z,8.9
2017-11-08T11:42:38.639Z,9
2017-11-08T11:43:41.078Z,9
2017-11-08T11:44:43.510Z,9
2017-11-08T11:45:45.943Z,9
2017-11-08T11:46:48.371Z,9
2017-11-08T11:47:50.796Z,8.9
2017-11-08T11:48:53.234Z,8.9
2017-11-08T11:49:55.667Z,8.9
2017-11-08T11:50:58.104Z,8.9
2017-11-08T11:52:00.540Z,8.9
2017-11-08T11:53:03.333Z,8.9
2017-11-08T11:54:05.775Z,8.9
2017-11-08T11:55:08.203Z,8.8
2017-11-08T11:56:10.627Z,8.8
2017-11-08T11:57:13.057Z,8.8
2017-11-08T11:58:15.497Z,8.9
2017-11-08T11:59:17.915Z,8.9
2017-11-08T12:00:20.711Z,8.9
2017-11-08T12:01:23.130Z,8.9
2017-11-08T12:02:25.556Z,8.9
2017-11-08T12:03:28.708Z,8.9
2017-11-08T12:04:31.135Z,8.8
2017-11-08T12:05:33.923Z,8.8
2017-11-08T12:06:36.353Z,8.9
2017-11-08T12:07:38.790Z,8.9
2017-11-08T12:08:41.236Z,8.9
2017-11-08T12:09:43.667Z,8.9
2017-11-08T12:10:46.101Z,8.9
2017-11-08T12:11:48.527Z,9
2017-11-08T12:12:50.968Z,9
2017-11-08T12:13:53.403Z,9
2017-11-08T12:14:55.830Z,9
2017-11-08T12:15:58.274Z,8.9
2017-11-08T12:17:00.704Z,8.9
2017-11-08T12:18:03.146Z,8.9
2017-11-08T12:19:05.596Z,8.9
2017-11-08T12:20:08.036Z,8.9
2017-11-08T12:21:10.485Z,8.8
2017-11-08T12:22:12.911Z,8.8
2017-11-08T12:23:15.340Z,8.8
2017-11-08T12:24:17.768Z,8.7
2017-11-08T12:25:20.554Z,8.8
2017-11-08T12:26:22.982Z,8.7
2017-11-08T12:27:25.429Z,8.6
2017-11-08T12:28:27.846Z,8.7
2017-11-08T12:29:30.298Z,8.8
2017-11-08T12:30:32.738Z,8.7
2017-11-08T12:31:35.538Z,8.7
2017-11-08T12:32:37.961Z,8.6
2017-11-08T12:33:40.761Z,8.6
2017-11-08T12:34:43.194Z,8.7
2017-11-08T12:35:45.987Z,8.6
2017-11-08T12:36:48.422Z,8.6
2017-11-08T12:37:50.856Z,8.7
2017-11-08T12:38:53.286Z,8.7
2017-11-08T12:39:55.740Z,8.7
2017-11-08T12:40:58.161Z,8.6
2017-11-08T12:42:00.589Z,8.6
2017-11-08T12:43:03.014Z,8.6
2017-11-08T12:44:05.462Z,8.7
2017-11-08T12:45:07.949Z,8.7
2017-11-08T12:46:10.382Z,8.8
2017-11-08T12:47:12.816Z,8.8
2017-11-08T12:48:15.254Z,8.9
2017-11-08T12:49:17.676Z,8.9
2017-11-08T12:50:20.121Z,8.9
2017-11-08T12:51:22.896Z,8.9
2017-11-08T12:52:25.331Z,8.9
2017-11-08T12:53:27.767Z,8.9
2017-11-08T12:54:30.194Z,8.9
2017-11-08T12:55:32.981Z,8.8
2017-11-08T12:56:35.424Z,8.8
2017-11-08T12:57:38.216Z,8.8
2017-11-08T12:58:40.657Z,8.8
2017-11-08T12:59:43.091Z,8.8
2017-11-08T13:00:45.519Z,8.8
2017-11-08T13:01:47.957Z,8.8
2017-11-08T13:02:50.389Z,8.8
2017-11-08T13:03:52.814Z,8.8
2017-11-08T13:04:55.260Z,8.8
2017-11-08T13:05:57.680Z,8.7
2017-11-08T13:07:00.116Z,8.7
2017-11-08T13:08:02.547Z,8.7
2017-11-08T13:09:04.981Z,8.7
2017-11-08T13:10:07.769Z,8.7
2017-11-08T13:11:10.208Z,8.7
2017-11-08T13:12:12.637Z,8.8
2017-11-08T13:13:15.427Z,8.8
2017-11-08T13:14:17.863Z,8.8
2017-11-08T13:15:20.295Z,8.8
2017-11-08T13:16:22.730Z,8.8
2017-11-08T13:17:25.180Z,8.8
2017-11-08T13:18:27.598Z,8.9
2017-11-08T13:19:30.031Z,8.9
2017-11-08T13:20:32.486Z,8.9
2017-11-08T13:21:34.909Z,9
2017-11-08T13:22:37.360Z,9
2017-11-08T13:23:39.801Z,8.9
2017-11-08T13:24:42.217Z,8.9
2017-11-08T13:25:44.654Z,8.9
2017-11-08T13:26:47.089Z,8.9
2017-11-08T13:27:49.520Z,8.9
2017-11-08T13:28:52.315Z,8.9
2017-11-08T13:29:54.731Z,8.8
2017-11-08T13:30:57.184Z,8.8
2017-11-08T13:31:59.612Z,8.8
2017-11-08T13:33:02.057Z,8.8
2017-11-08T13:34:04.490Z,8.7
2017-11-08T13:35:06.915Z,8.7
2017-11-08T13:36:09.346Z,8.6
2017-11-08T13:37:12.493Z,8.6
2017-11-08T13:38:14.925Z,8.7
2017-11-08T13:39:17.372Z,8.6
2017-11-08T13:40:20.214Z,8.6
2017-11-08T13:41:22.649Z,8.6
2017-11-08T13:42:25.086Z,8.6
2017-11-08T13:43:27.516Z,8.5
2017-11-08T13:44:29.971Z,8.5
2017-11-08T13:45:32.766Z,8.6
2017-11-08T13:46:35.194Z,8.6
2017-11-08T13:47:37.621Z,8.5
2017-11-08T13:48:40.062Z,8.5
2017-11-08T13:49:43.257Z,8.5
2017-11-08T13:50:45.706Z,8.5
2017-11-08T13:51:48.133Z,8.5
2017-11-08T13:52:50.926Z,8.5
2017-11-08T13:53:53.360Z,8.5
2017-11-08T13:54:56.156Z,8.5
2017-11-08T13:55:58.577Z,8.5
2017-11-08T13:57:01.025Z,8.5
2017-11-08T13:58:03.842Z,8.4
2017-11-08T13:59:06.281Z,8.4
2017-11-08T14:00:09.088Z,8.5
2017-11-08T14:01:11.526Z,8.5
2017-11-08T14:02:13.956Z,8.4
2017-11-08T14:03:16.410Z,8.4
2017-11-08T14:04:18.833Z,8.4
2017-11-08T14:05:21.626Z,8.4
2017-11-08T14:06:24.054Z,8.4
2017-11-08T14:07:26.480Z,8.4
2017-11-08T14:08:29.290Z,8.4
2017-11-08T14:09:31.721Z,8.4
2017-11-08T14:10:34.150Z,8.3
2017-11-08T14:11:36.600Z,8.3
2017-11-08T14:12:39.033Z,8.3
2017-11-08T14:13:41.827Z,8.3
2017-11-08T14:14:44.245Z,8.3
2017-11-08T14:15:46.679Z,8.3
2017-11-08T14:16:49.480Z,8.3
2017-11-08T14:17:51.915Z,8.3
2017-11-08T14:18:54.356Z,8.3
2017-11-08T14:19:56.782Z,8.3
2017-11-08T14:20:59.213Z,8.3
2017-11-08T14:22:01.659Z,8.4
2017-11-08T14:23:04.086Z,8.3
2017-11-08T14:24:07.608Z,8.3
2017-11-08T14:25:10.034Z,8.3
2017-11-08T14:26:12.471Z,8.3
2017-11-08T14:27:14.914Z,8.3
2017-11-08T14:28:17.347Z,8.3